createdAt,value
2023-05-05T00:02:41.532Z,18.70
2023-05-05T00:05:27.142Z,18.60
2023-05-05T00:08:13.121Z,18.60
2023-05-05T00:10:58.980Z,18.60
2023-05-05T00:13:44.639Z,18.60
2023-05-05T00:16:30.849Z,18.50
2023-05-05T00:19:17.065Z,18.50
2023-05-05T00:22:02.454Z,18.50
2023-05-05T00:24:48.332Z,18.40
2023-05-05T00:27:34.006Z,18.40
2023-05-05T00:30:21.113Z,18.40
2023-05-05T00:33:06.974Z,18.40
2023-05-05T00:35:52.686Z,18.40
2023-05-05T00:38:39.030Z,18.40
2023-05-05T00:41:24.614Z,18.30
2023-05-05T00:44:10.363Z,18.30
2023-05-05T00:46:56.619Z,18.30
2023-05-05T00:49:42.687Z,18.20
2023-05-05T00:52:29.189Z,18.20
2023-05-05T00:55:15.089Z,18.20
2023-05-05T00:58:03.171Z,18.20
2023-05-05T01:00:49.240Z,18.20
2023-05-05T01:03:38.567Z,18.20
2023-05-05T01:06:33.690Z,18.20
2023-05-05T01:09:31.211Z,18.10
2023-05-05T01:12:57.013Z,18.10
2023-05-05T01:16:15.763Z,18.00
2023-05-05T01:19:07.955Z,18.00
2023-05-05T01:22:00.915Z,18.00
2023-05-05T01:25:22.383Z,18.00
2023-05-05T01:29:13.990Z,17.90
2023-05-05T01:32:08.205Z,17.90
2023-05-05T01:35:03.010Z,17.90
2023-05-05T01:38:02.787Z,17.90
2023-05-05T01:41:03.205Z,17.90
2023-05-05T01:43:51.480Z,17.90
2023-05-05T01:46:37.583Z,18.00
2023-05-05T01:49:23.731Z,18.00
2023-05-05T01:52:10.443Z,18.00
2023-05-05T01:54:58.912Z,18.00
2023-05-05T01:57:47.172Z,17.90
2023-05-05T02:00:34.289Z,18.00
2023-05-05T02:03:23.388Z,17.90
2023-05-05T02:06:10.282Z,17.90
2023-05-05T02:08:58.354Z,17.90
2023-05-05T02:11:43.961Z,17.90
2023-05-05T02:14:31.304Z,17.90
2023-05-05T02:17:18.131Z,17.90
2023-05-05T02:20:05.117Z,17.90
2023-05-05T02:22:51.709Z,17.90
2023-05-05T02:25:49.653Z,17.90
2023-05-05T02:28:56.692Z,17.80
2023-05-05T02:31:48.240Z,17.80
2023-05-05T02:34:43.168Z,17.70
2023-05-05T02:37:34.949Z,17.70
2023-05-05T02:40:26.584Z,17.70
2023-05-05T02:43:18.436Z,17.70
2023-05-05T02:46:05.638Z,17.70
2023-05-05T02:48:52.231Z,17.70
2023-05-05T02:51:37.895Z,17.70
2023-05-05T02:54:28.914Z,17.70
2023-05-05T02:57:18.774Z,17.70
2023-05-05T03:00:24.321Z,17.70
2023-05-05T03:03:29.670Z,17.70
2023-05-05T03:06:20.492Z,17.60
2023-05-05T03:09:14.214Z,17.70
2023-05-05T03:12:19.377Z,17.60
2023-05-05T03:15:14.766Z,17.60
2023-05-05T03:18:02.576Z,17.60
2023-05-05T03:20:49.833Z,17.60
2023-05-05T03:23:37.622Z,17.60
2023-05-05T03:26:28.404Z,17.60
2023-05-05T03:29:15.735Z,17.60
2023-05-05T03:32:01.655Z,17.60
2023-05-05T03:34:48.408Z,17.60
2023-05-05T03:37:34.709Z,17.60
2023-05-05T03:40:23.515Z,17.60
2023-05-05T03:43:16.623Z,17.60
2023-05-05T03:46:02.320Z,17.50
2023-05-05T03:48:48.765Z,17.50
2023-05-05T03:51:35.130Z,17.50
2023-05-05T03:54:20.815Z,17.50
2023-05-05T03:57:07.088Z,17.40
2023-05-05T03:59:53.996Z,17.40
2023-05-05T04:02:39.464Z,17.40
2023-05-05T04:05:26.414Z,17.40
2023-05-05T04:08:12.712Z,17.50
2023-05-05T04:10:58.758Z,17.50
2023-05-05T04:13:44.873Z,17.50
2023-05-05T04:16:31.069Z,17.50
2023-05-05T04:19:19.137Z,17.50
2023-05-05T04:22:08.156Z,17.60
2023-05-05T04:24:54.369Z,17.60
2023-05-05T04:27:41.181Z,17.60
2023-05-05T04:30:27.641Z,17.60
2023-05-05T04:33:14.283Z,17.70
2023-05-05T04:35:59.898Z,17.70
2023-05-05T04:38:46.648Z,17.70
2023-05-05T04:41:32.916Z,17.80
2023-05-05T04:44:18.886Z,17.80
2023-05-05T04:47:04.963Z,17.80
2023-05-05T04:49:50.988Z,17.80
2023-05-05T04:52:38.079Z,17.90
2023-05-05T04:55:24.616Z,17.90
2023-05-05T04:58:10.525Z,18.00
2023-05-05T05:00:56.381Z,18.10
2023-05-05T05:03:42.366Z,18.10
2023-05-05T05:06:29.366Z,18.20
2023-05-05T05:09:15.814Z,18.20
2023-05-05T05:12:05.812Z,18.30
2023-05-05T05:14:51.938Z,18.30
2023-05-05T05:17:37.830Z,18.40
2023-05-05T05:20:24.506Z,18.40
2023-05-05T05:23:10.511Z,18.50
2023-05-05T05:26:01.173Z,18.50
2023-05-05T05:28:49.758Z,18.60
2023-05-05T05:31:37.015Z,18.70
2023-05-05T05:34:23.933Z,18.70
2023-05-05T05:37:10.051Z,18.80
2023-05-05T05:39:56.972Z,18.90
2023-05-05T05:42:44.545Z,18.90
2023-05-05T05:45:31.184Z,19.00
2023-05-05T05:48:16.900Z,19.00
2023-05-05T05:51:02.962Z,19.10
2023-05-05T05:53:48.468Z,19.10
2023-05-05T05:56:35.138Z,19.20
2023-05-05T05:59:21.213Z,19.20
2023-05-05T06:02:07.981Z,19.20
2023-05-05T06:04:54.112Z,19.30
2023-05-05T06:07:40.025Z,19.30
2023-05-05T06:10:28.228Z,19.40
2023-05-05T06:13:27.862Z,19.50
2023-05-05T06:16:13.330Z,19.60
2023-05-05T06:19:01.699Z,19.60
2023-05-05T06:21:47.390Z,19.70
2023-05-05T06:24:33.446Z,19.80
2023-05-05T06:27:20.629Z,19.80
2023-05-05T06:30:08.329Z,19.90
2023-05-05T06:32:54.413Z,20.00
2023-05-05T06:35:40.175Z,20.10
2023-05-05T06:38:26.005Z,20.20
2023-05-05T06:41:11.602Z,20.30
2023-05-05T06:43:57.476Z,20.30
2023-05-05T06:46:44.184Z,20.40
2023-05-05T06:49:30.324Z,20.50
2023-05-05T06:52:19.783Z,20.60
2023-05-05T06:55:06.437Z,20.70
2023-05-05T06:58:04.184Z,20.80
2023-05-05T07:00:50.455Z,20.90
2023-05-05T07:03:40.118Z,21.00
2023-05-05T07:06:26.211Z,21.10
2023-05-05T07:09:17.034Z,21.10
2023-05-05T07:12:04.018Z,21.20
2023-05-05T07:14:49.758Z,21.20
2023-05-05T07:17:35.280Z,21.30
2023-05-05T07:20:21.510Z,21.30
2023-05-05T07:23:07.690Z,21.40
2023-05-05T07:25:55.066Z,21.40
2023-05-05T07:28:41.700Z,21.40
2023-05-05T07:31:27.372Z,21.50
2023-05-05T07:34:13.466Z,21.50
2023-05-05T07:36:58.856Z,21.50
2023-05-05T07:39:44.352Z,21.50
2023-05-05T07:42:30.071Z,21.60
2023-05-05T07:45:16.406Z,21.60
2023-05-05T07:48:02.661Z,21.60
2023-05-05T07:50:48.419Z,21.70
2023-05-05T07:53:34.184Z,21.80
2023-05-05T07:56:21.662Z,21.80
2023-05-05T07:59:08.550Z,21.90
2023-05-05T08:01:55.050Z,21.90
2023-05-05T08:04:43.413Z,22.00
2023-05-05T08:07:29.210Z,22.00
2023-05-05T08:10:16.396Z,22.10
2023-05-05T08:13:03.225Z,22.10
2023-05-05T08:15:55.743Z,22.10
2023-05-05T08:18:41.608Z,22.20
2023-05-05T08:21:27.971Z,22.20
2023-05-05T08:24:14.157Z,22.30
2023-05-05T08:26:59.789Z,22.30
2023-05-05T08:29:46.332Z,22.40
2023-05-05T08:32:32.417Z,22.40
2023-05-05T08:35:18.429Z,22.50
2023-05-05T08:38:04.483Z,22.60
2023-05-05T08:40:53.399Z,22.60
2023-05-05T08:43:39.769Z,22.70
2023-05-05T08:46:28.169Z,22.90
2023-05-05T08:49:16.557Z,23.00
2023-05-05T08:52:05.709Z,23.10
2023-05-05T08:54:56.672Z,23.10
2023-05-05T08:57:56.648Z,23.10
2023-05-05T09:00:45.412Z,23.10
2023-05-05T09:03:34.157Z,23.10
2023-05-05T09:06:22.419Z,23.20
2023-05-05T09:09:09.505Z,23.20
2023-05-05T09:11:58.566Z,23.20
2023-05-05T09:14:46.291Z,23.20
2023-05-05T09:17:31.999Z,23.30
2023-05-05T09:20:18.417Z,23.30
2023-05-05T09:23:16.269Z,23.40
2023-05-05T09:26:08.971Z,23.40
2023-05-05T09:28:55.252Z,23.50
2023-05-05T09:31:43.467Z,23.60
2023-05-05T09:34:29.416Z,23.60
2023-05-05T09:37:31.350Z,23.70
2023-05-05T09:40:24.310Z,23.80
2023-05-05T09:43:10.317Z,23.90
2023-05-05T09:46:07.924Z,24.00
2023-05-05T09:48:54.746Z,24.40
2023-05-05T09:51:40.968Z,24.80
2023-05-05T09:54:30.010Z,25.10
2023-05-05T09:57:33.808Z,25.40
2023-05-05T10:00:21.826Z,25.70
2023-05-05T10:03:08.636Z,25.80
2023-05-05T10:06:01.241Z,25.90
2023-05-05T10:09:02.248Z,26.10
2023-05-05T10:11:48.457Z,26.20
2023-05-05T10:14:39.132Z,26.30
2023-05-05T10:17:27.390Z,26.30
2023-05-05T10:20:16.061Z,26.40
2023-05-05T10:23:17.427Z,26.40
2023-05-05T10:26:08.184Z,26.40
2023-05-05T10:29:04.468Z,26.40
2023-05-05T10:31:54.932Z,26.50
2023-05-05T10:34:55.902Z,26.50
2023-05-05T10:37:43.129Z,26.60
2023-05-05T10:40:30.767Z,26.70
2023-05-05T10:43:17.945Z,26.80
2023-05-05T10:46:05.078Z,26.90
2023-05-05T10:48:58.707Z,27.00
2023-05-05T10:52:23.407Z,27.10
2023-05-05T10:55:38.998Z,27.20
2023-05-05T10:58:55.300Z,27.40
2023-05-05T11:01:45.218Z,27.50
2023-05-05T11:04:31.796Z,27.60
2023-05-05T11:07:24.744Z,27.70
2023-05-05T11:10:13.461Z,27.80
2023-05-05T11:13:00.451Z,27.70
2023-05-05T11:15:46.176Z,27.90
2023-05-05T11:18:40.178Z,27.90
2023-05-05T11:21:28.309Z,28.00
2023-05-05T11:24:32.343Z,27.90
2023-05-05T11:27:18.833Z,28.00
2023-05-05T11:30:08.945Z,28.00
2023-05-05T11:33:29.741Z,28.00
2023-05-05T11:36:20.544Z,28.20
2023-05-05T11:39:11.838Z,28.40
2023-05-05T11:42:23.402Z,28.50
2023-05-05T11:45:25.127Z,28.70
2023-05-05T11:48:27.398Z,28.70
2023-05-05T11:51:15.023Z,28.80
2023-05-05T11:54:01.120Z,28.90
2023-05-05T11:56:55.781Z,28.90
2023-05-05T12:00:06.357Z,28.90
2023-05-05T12:03:02.946Z,28.90
2023-05-05T12:05:49.229Z,28.90
2023-05-05T12:08:45.676Z,28.90
2023-05-05T12:11:37.478Z,28.90
2023-05-05T12:14:31.099Z,28.90
2023-05-05T12:17:20.804Z,28.90
2023-05-05T12:20:07.944Z,28.90
2023-05-05T12:23:03.169Z,28.80
2023-05-05T12:25:49.693Z,28.80
2023-05-05T12:28:48.728Z,28.80
2023-05-05T12:31:43.285Z,28.60
2023-05-05T12:34:31.107Z,28.50
2023-05-05T12:37:19.285Z,28.50
2023-05-05T12:40:06.727Z,28.50
2023-05-05T12:42:53.716Z,28.60
2023-05-05T12:45:41.009Z,28.50
2023-05-05T12:48:26.838Z,28.50
2023-05-05T12:51:23.650Z,28.40
2023-05-05T12:54:11.459Z,28.30
2023-05-05T12:56:57.870Z,28.30
2023-05-05T12:59:44.022Z,28.30
2023-05-05T13:02:35.876Z,28.20
2023-05-05T13:05:41.061Z,28.10
2023-05-05T13:08:45.623Z,28.00
2023-05-05T13:11:35.816Z,28.00
2023-05-05T13:14:22.199Z,28.00
2023-05-05T13:17:08.034Z,27.90
2023-05-05T13:19:53.655Z,27.90
2023-05-05T13:22:39.299Z,27.90
2023-05-05T13:25:25.249Z,27.90
2023-05-05T13:28:11.310Z,27.90
2023-05-05T13:30:58.746Z,27.90
2023-05-05T13:33:45.161Z,28.00
2023-05-05T13:36:31.158Z,28.10
2023-05-05T13:39:16.771Z,28.20
2023-05-05T13:42:02.567Z,28.20
2023-05-05T13:44:48.337Z,28.20
2023-05-05T13:47:34.135Z,28.10
2023-05-05T13:50:19.993Z,28.00
2023-05-05T13:53:06.064Z,28.00
2023-05-05T13:55:54.656Z,28.00
2023-05-05T13:58:41.588Z,28.10
2023-05-05T14:01:27.682Z,28.10
2023-05-05T14:04:13.686Z,28.10
2023-05-05T14:07:00.086Z,28.20
2023-05-05T14:09:45.789Z,28.20
2023-05-05T14:12:32.618Z,28.20
2023-05-05T14:15:18.661Z,28.20
2023-05-05T14:18:13.172Z,28.10
2023-05-05T14:21:00.547Z,28.00
2023-05-05T14:23:46.508Z,27.90
2023-05-05T14:26:33.777Z,27.80
2023-05-05T14:29:24.005Z,27.70
2023-05-05T14:32:10.910Z,27.70
2023-05-05T14:35:00.901Z,27.60
2023-05-05T14:37:47.720Z,27.60
2023-05-05T14:40:36.466Z,27.60
2023-05-05T14:43:35.141Z,27.60
2023-05-05T14:46:26.395Z,27.60
2023-05-05T14:49:30.645Z,27.50
2023-05-05T14:52:27.763Z,27.50
2023-05-05T14:58:57.020Z,27.30
2023-05-05T15:01:51.134Z,27.30
2023-05-05T15:04:36.945Z,27.30
2023-05-05T15:07:29.900Z,27.20
2023-05-05T15:10:19.728Z,27.20
2023-05-05T15:13:17.468Z,27.10
2023-05-05T15:16:03.941Z,27.10
2023-05-05T15:19:17.328Z,27.00
2023-05-05T15:22:24.124Z,27.00
2023-05-05T15:25:13.492Z,27.00
2023-05-05T15:28:01.024Z,26.90
2023-05-05T15:30:47.570Z,26.90
2023-05-05T15:33:33.844Z,26.80
2023-05-05T15:36:23.114Z,26.70
2023-05-05T15:39:09.464Z,26.70
2023-05-05T15:41:54.951Z,26.60
2023-05-05T15:44:40.641Z,26.50
2023-05-05T15:47:26.881Z,26.40
2023-05-05T15:50:13.241Z,26.30
2023-05-05T15:52:59.740Z,26.20
2023-05-05T15:56:11.770Z,26.00
2023-05-05T15:58:58.133Z,26.00
2023-05-05T16:01:44.405Z,25.90
2023-05-05T16:04:31.996Z,25.80
2023-05-05T16:07:18.521Z,25.70
2023-05-05T16:10:04.535Z,25.60
2023-05-05T16:12:51.918Z,25.40
2023-05-05T16:15:40.774Z,25.40
2023-05-05T16:18:27.292Z,25.30
2023-05-05T16:21:13.054Z,25.20
2023-05-05T16:23:58.946Z,25.10
2023-05-05T16:26:45.091Z,25.00
2023-05-05T16:30:10.553Z,24.80
2023-05-05T16:32:56.685Z,24.80
2023-05-05T16:35:46.604Z,24.80
2023-05-05T16:38:32.489Z,24.70
2023-05-05T16:41:17.966Z,24.70
2023-05-05T16:44:04.716Z,24.60
2023-05-05T16:46:50.574Z,24.60
2023-05-05T16:49:36.804Z,24.60
2023-05-05T16:52:22.868Z,24.60
2023-05-05T16:55:10.257Z,24.50
2023-05-05T16:57:56.034Z,24.50
2023-05-05T17:00:42.386Z,24.50
2023-05-05T17:03:28.562Z,24.40
2023-05-05T17:06:14.734Z,24.40
2023-05-05T17:09:01.099Z,24.30
2023-05-05T17:11:47.082Z,24.30
2023-05-05T17:14:33.946Z,24.20
2023-05-05T17:17:19.734Z,24.10
2023-05-05T17:20:06.706Z,24.00
2023-05-05T17:22:52.322Z,23.80
2023-05-05T17:25:38.087Z,23.50
2023-05-05T17:28:24.270Z,23.20
2023-05-05T17:31:11.052Z,22.90
2023-05-05T17:33:57.474Z,22.60
2023-05-05T17:36:43.303Z,22.40
2023-05-05T17:39:30.769Z,22.20
2023-05-05T17:42:22.983Z,22.10
2023-05-05T17:45:12.108Z,22.00
2023-05-05T17:48:00.018Z,21.90
2023-05-05T17:50:47.171Z,21.90
2023-05-05T17:53:33.021Z,21.90
2023-05-05T17:56:18.502Z,21.90
2023-05-05T17:59:07.889Z,21.80
2023-05-05T18:01:54.304Z,21.80
2023-05-05T18:04:40.387Z,21.80
2023-05-05T18:07:29.031Z,21.80
2023-05-05T18:10:16.733Z,21.80
2023-05-05T18:13:03.534Z,21.90
2023-05-05T18:15:49.639Z,21.90
2023-05-05T18:18:38.534Z,21.90
2023-05-05T18:21:24.744Z,21.90
2023-05-05T18:24:19.275Z,21.90
2023-05-05T18:27:09.653Z,21.90
2023-05-05T18:29:55.267Z,22.00
2023-05-05T18:32:41.615Z,22.00
2023-05-05T18:35:29.718Z,22.00
2023-05-05T18:38:15.816Z,22.00
2023-05-05T18:41:02.089Z,22.00
2023-05-05T18:43:48.313Z,22.00
2023-05-05T18:46:35.139Z,22.10
2023-05-05T18:49:23.691Z,22.10
2023-05-05T18:52:09.984Z,22.00
2023-05-05T18:54:58.512Z,22.10
2023-05-05T18:57:55.435Z,22.00
2023-05-05T19:00:44.879Z,22.00
2023-05-05T19:03:30.978Z,22.00
2023-05-05T19:11:46.727Z,21.90
2023-05-05T19:14:45.412Z,21.90
2023-05-05T19:17:33.400Z,21.90
2023-05-05T19:20:45.305Z,21.80
2023-05-05T19:23:36.150Z,21.80
2023-05-05T19:26:35.006Z,21.80
2023-05-05T19:29:32.630Z,21.70
2023-05-05T19:32:26.991Z,21.70
2023-05-05T19:35:13.831Z,21.70
2023-05-05T19:38:11.686Z,21.60
2023-05-05T19:40:57.758Z,21.60
2023-05-05T19:44:22.076Z,21.60
2023-05-05T19:47:09.023Z,21.70
2023-05-05T19:49:56.277Z,21.60
2023-05-05T19:52:42.392Z,21.60
2023-05-05T19:55:28.642Z,21.60
2023-05-05T19:58:16.244Z,21.60
2023-05-05T20:01:02.277Z,21.60
2023-05-05T20:03:48.586Z,21.70
2023-05-05T20:06:35.773Z,21.60
2023-05-05T20:09:22.676Z,21.60
2023-05-05T20:12:08.450Z,21.60
2023-05-05T20:14:55.129Z,21.60
2023-05-05T20:17:41.004Z,21.60
2023-05-05T20:20:27.802Z,21.60
2023-05-05T20:23:13.912Z,21.60
2023-05-05T20:26:00.818Z,21.50
2023-05-05T20:28:47.137Z,21.50
2023-05-05T20:32:20.811Z,21.30
2023-05-05T20:35:07.683Z,21.30
2023-05-05T20:37:53.801Z,21.20
2023-05-05T20:40:42.051Z,21.10
2023-05-05T20:43:28.407Z,21.10
2023-05-05T20:46:14.965Z,21.00
2023-05-05T20:49:01.281Z,20.90
2023-05-05T20:51:47.363Z,20.90
2023-05-05T20:54:36.641Z,20.90
2023-05-05T20:57:22.652Z,20.90
2023-05-05T21:00:09.661Z,20.90
2023-05-05T21:02:57.024Z,20.80
2023-05-05T21:05:44.798Z,20.70
2023-05-05T21:08:55.102Z,20.70
2023-05-05T21:11:40.895Z,20.70
2023-05-05T21:14:26.959Z,20.60
2023-05-05T21:17:13.182Z,20.60
2023-05-05T21:19:59.531Z,20.70
2023-05-05T21:22:45.947Z,20.70
2023-05-05T21:25:32.356Z,20.60
2023-05-05T21:28:18.462Z,20.70
2023-05-05T21:31:21.050Z,20.70
2023-05-05T21:34:07.867Z,20.70
2023-05-05T21:36:54.229Z,20.70
2023-05-05T21:39:40.737Z,20.70
2023-05-05T21:42:27.023Z,20.60
2023-05-05T21:45:13.471Z,20.60
2023-05-05T21:53:17.690Z,20.60
2023-05-05T21:56:13.826Z,20.60
2023-05-05T21:59:09.419Z,20.60
2023-05-05T22:02:05.225Z,20.70
2023-05-05T22:04:52.184Z,20.70
2023-05-05T22:08:16.661Z,20.60
2023-05-05T22:59:48.898Z,20.60
2023-05-05T23:03:07.564Z,20.60
2023-05-05T23:11:07.913Z,20.50
2023-05-05T23:14:04.237Z,20.60
2023-05-05T23:17:03.813Z,20.60
2023-05-05T23:20:00.036Z,20.70
2023-05-05T23:31:49.126Z,20.60
2023-05-05T23:35:11.227Z,20.70
2023-05-05T23:39:04.175Z,20.60
2023-05-05T23:42:13.693Z,20.60
2023-05-05T23:45:34.636Z,20.60
2023-05-05T23:48:21.659Z,20.50
2023-05-05T23:51:07.738Z,20.60
2023-05-05T23:56:23.665Z,20.40
2023-05-05T23:58:18.470Z,20.40
